Details for Austrian at LOWG




Go Back


Latest METAR
Local Time

LOWG 241350Z 21003KT 9999 FEW012 BKN058 M01/M05 Q1017 R17/29//95 TEMPO 10007KT

24/02/2018, 14:56:40

Description
Results
Austrian Logo
Number of Pilots based at LOWG
0 Pilots Based here
Number of Austrian Flights Departed from LOWG
0 Flights Departed
Number of Austrian Flights Arrived at LOWG
0 Flights Arrived
Number of Austrian Schedules Departing from LOWG
14 Schedules
Number of Austrian Schedules Arriving at LOWG
13 Schedules
Number of Austrian Schedules Departing from LOWG availible today
7 Schedules Today
Number of Austrian Schedules Arriving at LOWG availible today
6 Schedules Today
Average Landing Rate at LOWG
-92 fpm
Austrian Average Landing Rate at LOWG
0 fpm
Total Fuel Purchased at LOWG by Austrian
0.00 kgs / 0.00 lbs

Pilots Based at LOWG


Pilot ID
Pilot Name
Pilot Rank
No. of Flights
No. of Flying Hours
There are no pilots assigned to this hub!   Will you be the first?
Content